Time;durP1;ratioP1;P1;durP2;ratioP2;P2;SDS_P1;SDS_P2;PMS_P1;PMS_P2;Temp;Humidity;BMP_temperature;BMP_pressure;BME280_temperature;BME280_humidity;BME280_pressure;Samples;Min_cycle;Max_cycle;Signal;HPM_P1;HPM_P2
2023/06/29 00:01:55;;;;;;;3.22;2.92;;;;;;;18.59;98.38;101434.81;4920439;29;20544;-53
2023/06/29 00:04:21;;;;;;;2.92;2.70;;;;;;;18.64;98.52;101432.66;4921314;29;20212;-51
2023/06/29 00:06:49;;;;;;;2.97;2.50;;;;;;;18.62;98.46;101440.03;4923322;29;20251;-48
2023/06/29 00:09:16;;;;;;;5.70;3.72;;;;;;;18.57;98.71;101434.03;4927391;29;20191;-50
2023/06/29 00:11:43;;;;;;;4.30;3.90;;;;;;;18.57;98.89;101439.44;4920642;29;20176;-53
2023/06/29 00:14:08;;;;;;;6.65;4.22;;;;;;;18.50;98.75;101436.25;4924090;29;20210;-52
2023/06/29 00:16:35;;;;;;;8.07;4.50;;;;;;;18.42;99.42;101433.13;4924965;29;20235;-49
2023/06/29 00:19:01;;;;;;;8.13;4.85;;;;;;;18.45;100.00;101430.19;4920840;29;20532;-53
2023/06/29 00:21:28;;;;;;;4.63;3.97;;;;;;;18.59;100.00;101422.09;4925967;29;20210;-49
2023/06/29 00:23:54;;;;;;;7.72;5.10;;;;;;;18.46;100.00;101427.41;4925704;29;20682;-50
2023/06/29 00:26:20;;;;;;;4.90;4.40;;;;;;;18.59;100.00;101430.25;4922873;29;20563;-49
2023/06/29 00:28:46;;;;;;;7.15;5.20;;;;;;;18.50;100.00;101422.69;4919659;28;20179;-50
2023/06/29 00:31:11;;;;;;;6.78;5.50;;;;;;;18.55;100.00;101415.09;4919106;29;20489;-51
2023/06/29 00:33:37;;;;;;;7.90;6.05;;;;;;;18.40;100.00;101424.19;4923742;29;20311;-49
2023/06/29 00:36:03;;;;;;;7.38;6.38;;;;;;;18.35;100.00;101429.91;4922355;29;20222;-51
2023/06/29 00:38:29;;;;;;;6.50;5.72;;;;;;;18.41;100.00;101421.41;4921011;29;20230;-51
2023/06/29 00:40:55;;;;;;;6.28;4.75;;;;;;;18.50;100.00;101426.25;4928809;29;20184;-50
2023/06/29 00:43:21;;;;;;;6.82;5.95;;;;;;;18.44;100.00;101423.06;4926769;29;20794;-50
2023/06/29 00:45:46;;;;;;;5.78;5.18;;;;;;;18.48;100.00;101427.31;4924020;29;20199;-53
2023/06/29 00:48:12;;;;;;;7.45;6.07;;;;;;;18.37;100.00;101421.69;4923175;29;20214;-50
2023/06/29 00:50:40;;;;;;;6.18;5.60;;;;;;;18.40;100.00;101425.06;4926589;29;20710;-49
2023/06/29 00:53:06;;;;;;;6.13;5.53;;;;;;;18.28;100.00;101426.72;4925743;29;20223;-50
2023/06/29 00:55:33;;;;;;;9.88;5.88;;;;;;;18.27;100.00;101416.81;4923538;29;20183;-52
2023/06/29 00:57:58;;;;;;;10.13;5.72;;;;;;;18.23;100.00;101415.25;4935179;29;20315;-51
2023/06/29 01:00:24;;;;;;;10.65;5.85;;;;;;;18.26;100.00;101412.38;4918105;29;20585;-50
2023/06/29 01:02:50;;;;;;;6.88;5.97;;;;;;;18.32;100.00;101403.84;4925690;29;20218;-51
2023/06/29 01:05:16;;;;;;;5.72;5.03;;;;;;;18.44;100.00;101404.91;4921484;29;20184;-50
2023/06/29 01:08:11;;;;;;;5.22;4.20;;;;;;;18.34;100.00;101398.31;4920825;29;20184;-53
2023/06/29 01:10:38;;;;;;;7.90;6.05;;;;;;;18.38;100.00;101388.16;4918201;29;20179;-53
2023/06/29 01:13:07;;;;;;;5.28;4.68;;;;;;;18.32;100.00;101390.28;4921340;29;20245;-50
2023/06/29 01:15:35;;;;;;;7.88;6.57;;;;;;;18.21;100.00;101394.59;4926023;29;20223;-50
2023/06/29 01:18:03;;;;;;;7.20;5.45;;;;;;;18.26;100.00;101378.94;4923679;29;20195;-52
2023/06/29 01:20:31;;;;;;;7.22;5.93;;;;;;;18.14;100.00;101385.13;4919333;29;20183;-51
2023/06/29 01:23:05;;;;;;;6.97;6.25;;;;;;;18.09;100.00;101388.97;4926813;29;20698;-51
2023/06/29 01:25:32;;;;;;;6.07;5.50;;;;;;;18.25;100.00;101388.03;4922299;29;20293;-50
2023/06/29 01:27:58;;;;;;;8.88;7.65;;;;;;;18.10;100.00;101389.84;4926591;29;20259;-50
2023/06/29 01:30:26;;;;;;;10.10;6.97;;;;;;;18.16;100.00;101378.63;4922837;29;20188;-50
2023/06/29 01:32:55;;;;;;;8.75;6.55;;;;;;;18.22;100.00;101385.53;4922289;29;20293;-49
2023/06/29 01:35:20;;;;;;;9.88;7.00;;;;;;;18.22;100.00;101385.53;4924632;29;20295;-50
2023/06/29 01:37:55;;;;;;;8.77;7.32;;;;;;;18.11;100.00;101378.91;4935253;28;20281;-52
2023/06/29 01:40:26;;;;;;;9.25;7.78;;;;;;;18.04;100.00;101374.84;4919556;29;20585;-48
2023/06/29 01:42:54;;;;;;;7.75;6.95;;;;;;;18.17;100.00;101379.50;4916259;29;20203;-53
2023/06/29 01:45:21;;;;;;;11.85;7.53;;;;;;;18.09;100.00;101370.00;4921071;29;20619;-48
2023/06/29 01:47:47;;;;;;;7.88;7.07;;;;;;;18.14;100.00;101369.69;4923047;29;20622;-49
2023/06/29 01:50:14;;;;;;;10.48;8.10;;;;;;;18.15;100.00;101374.19;4922625;29;20184;-51
2023/06/29 01:53:36;;;;;;;8.10;7.03;;;;;;;18.08;100.00;101370.06;4919498;29;20204;-50
2023/06/29 01:56:03;;;;;;;10.13;7.97;;;;;;;17.93;100.00;101369.19;4920227;29;20514;-48
2023/06/29 01:58:28;;;;;;;15.20;7.88;;;;;;;18.04;100.00;101371.25;4935725;28;20184;-50
2023/06/29 02:00:54;;;;;;;10.00;8.15;;;;;;;17.97;100.00;101368.00;4920235;29;20219;-49
2023/06/29 02:03:21;;;;;;;11.68;8.18;;;;;;;18.02;100.00;101365.06;4917487;29;20585;-52
2023/06/29 02:05:46;;;;;;;11.43;7.18;;;;;;;18.06;100.00;101374.72;4924704;29;20187;-50
2023/06/29 02:08:12;;;;;;;9.57;7.78;;;;;;;17.94;100.00;101364.63;4919700;29;20262;-51
2023/06/29 02:10:39;;;;;;;7.75;6.88;;;;;;;17.93;100.00;101366.47;4919037;28;20175;-50
2023/06/29 02:13:04;;;;;;;10.95;6.53;;;;;;;18.12;100.00;101367.06;4927245;29;20254;-50
2023/06/29 02:15:30;;;;;;;11.52;7.85;;;;;;;18.04;100.00;101364.00;4921049;29;20287;-50
2023/06/29 02:18:03;;;;;;;9.88;8.30;;;;;;;18.11;100.00;101365.34;4922988;29;20210;-50
2023/06/29 02:20:28;;;;;;;13.50;9.93;;;;;;;18.16;100.00;101353.34;4919724;29;20175;-51
2023/06/29 02:22:54;;;;;;;11.18;8.82;;;;;;;18.16;100.00;101345.22;4924277;29;20218;-50
2023/06/29 02:25:19;;;;;;;9.98;8.57;;;;;;;18.14;100.00;101352.56;4919224;29;20210;-52
2023/06/29 02:27:45;;;;;;;12.88;9.82;;;;;;;18.02;100.00;101359.63;4922149;29;20196;-51
2023/06/29 02:30:12;;;;;;;16.70;11.40;;;;;;;17.98;100.00;101358.06;4924801;29;20816;-51
2023/06/29 02:32:38;;;;;;;11.13;9.00;;;;;;;18.05;100.00;101357.59;4921128;29;20203;-50
2023/06/29 02:35:04;;;;;;;12.60;11.05;;;;;;;18.06;100.00;101347.59;4926670;29;20274;-51
2023/06/29 02:37:30;;;;;;;12.05;8.93;;;;;;;18.00;100.00;101356.13;4925063;29;20211;-51
2023/06/29 02:39:56;;;;;;;12.70;11.40;;;;;;;17.89;100.00;101363.06;4915706;29;20176;-52
2023/06/29 02:42:22;;;;;;;12.18;10.88;;;;;;;17.94;100.00;101354.66;4919286;29;20630;-51
2023/06/29 02:44:47;;;;;;;14.85;11.70;;;;;;;17.98;100.00;101350.78;4921184;29;20178;-50
2023/06/29 02:47:13;;;;;;;13.23;11.05;;;;;;;18.10;100.00;101358.19;4940549;28;20658;-50
2023/06/29 02:49:39;;;;;;;13.18;11.38;;;;;;;18.08;100.00;101352.00;4917587;29;20183;-49
2023/06/29 02:52:06;;;;;;;13.98;11.60;;;;;;;18.05;100.00;101354.00;4925074;29;20176;-50
2023/06/29 02:54:31;;;;;;;21.83;15.35;;;;;;;17.86;100.00;101348.81;4924902;29;20510;-49
2023/06/29 02:56:57;;;;;;;20.10;14.52;;;;;;;17.87;100.00;101354.16;4921204;29;20263;-51
2023/06/29 02:59:26;;;;;;;19.30;15.70;;;;;;;17.80;100.00;101360.88;4920912;29;20554;-51
2023/06/29 03:01:52;;;;;;;18.35;15.02;;;;;;;17.83;100.00;101351.72;4918827;29;20179;-51
2023/06/29 03:04:17;;;;;;;16.75;14.07;;;;;;;17.90;100.00;101361.22;4936564;28;20211;-54
2023/06/29 03:06:43;;;;;;;17.05;13.75;;;;;;;17.81;100.00;101353.63;4919058;29;20804;-50
2023/06/29 03:09:08;;;;;;;18.77;13.77;;;;;;;17.75;100.00;101352.16;4924397;29;20210;-49
2023/06/29 03:11:34;;;;;;;20.05;14.85;;;;;;;17.80;100.00;101355.47;4918247;29;20187;-54
2023/06/29 03:13:59;;;;;;;20.40;14.98;;;;;;;17.86;100.00;101351.53;4920673;29;20261;-50
2023/06/29 03:16:25;;;;;;;17.13;13.85;;;;;;;17.85;100.00;101352.50;4918743;29;20239;-50
2023/06/29 03:18:50;;;;;;;19.23;14.63;;;;;;;17.89;100.00;101338.69;4916438;29;20638;-50
2023/06/29 03:21:18;;;;;;;21.05;14.43;;;;;;;17.92;100.00;101345.75;4920134;29;20650;-51
2023/06/29 03:23:44;;;;;;;17.60;13.77;;;;;;;17.85;100.00;101352.50;4920691;29;20325;-50
2023/06/29 03:26:09;;;;;;;20.40;14.63;;;;;;;17.85;100.00;101361.50;4925406;29;20195;-52
2023/06/29 03:28:35;;;;;;;19.35;15.00;;;;;;;17.86;100.00;101346.09;4918882;29;20175;-54
2023/06/29 03:31:00;;;;;;;20.13;15.68;;;;;;;17.89;100.00;101349.53;4918387;29;20514;-50
2023/06/29 03:33:26;;;;;;;22.80;15.02;;;;;;;17.84;100.00;101353.47;4918740;29;20231;-50
2023/06/29 03:35:51;;;;;;;19.13;15.50;;;;;;;17.95;100.00;101350.09;4918272;28;20552;-54
2023/06/29 03:38:17;;;;;;;21.52;16.83;;;;;;;17.84;100.00;101348.03;4922956;29;20230;-49
2023/06/29 03:40:43;;;;;;;23.38;16.45;;;;;;;17.84;100.00;101353.47;4931739;28;20275;-52
2023/06/29 03:43:08;;;;;;;16.98;13.85;;;;;;;17.99;100.00;101349.81;4921392;29;20215;-51
2023/06/29 03:45:34;;;;;;;22.73;16.77;;;;;;;17.99;100.00;101352.53;4920259;29;20744;-53
2023/06/29 03:47:59;;;;;;;20.58;16.55;;;;;;;17.91;100.00;101352.16;4918994;29;20176;-52
2023/06/29 03:50:25;;;;;;;19.58;16.60;;;;;;;17.88;100.00;101352.31;4917738;28;20534;-52
2023/06/29 03:52:50;;;;;;;20.00;17.00;;;;;;;17.90;100.00;101358.50;4921663;29;20686;-52
2023/06/29 03:55:17;;;;;;;20.83;16.27;;;;;;;17.92;100.00;101359.28;4920767;29;20176;-52
2023/06/29 03:57:42;;;;;;;20.58;15.48;;;;;;;18.03;100.00;101354.09;4919795;29;20757;-51
2023/06/29 04:00:08;;;;;;;22.20;18.42;;;;;;;18.02;100.00;101360.50;4920824;29;20177;-50
2023/06/29 04:02:43;;;;;;;21.65;18.48;;;;;;;17.91;100.00;101344.88;4915722;29;20309;-50
2023/06/29 04:05:09;;;;;;;22.35;18.60;;;;;;;17.90;100.00;101336.81;4922554;29;20191;-51
2023/06/29 04:07:34;;;;;;;20.98;17.65;;;;;;;17.99;100.00;101346.25;4920983;29;20172;-50
2023/06/29 04:10:00;;;;;;;21.88;17.38;;;;;;;18.01;100.00;101347.03;4920451;29;20183;-49
2023/06/29 04:12:26;;;;;;;20.27;16.45;;;;;;;18.12;100.00;101339.97;4920696;29;20179;-52
2023/06/29 04:14:51;;;;;;;25.75;17.85;;;;;;;18.17;100.00;101346.94;4916452;29;20188;-51
2023/06/29 04:17:17;;;;;;;28.85;20.50;;;;;;;18.01;100.00;101345.19;4922464;29;20301;-53
2023/06/29 04:19:42;;;;;;;26.25;19.48;;;;;;;18.07;100.00;101333.97;4925894;29;20230;-52
2023/06/29 04:22:08;;;;;;;22.77;18.98;;;;;;;18.07;100.00;101342.09;4922064;29;20270;-49
2023/06/29 04:24:33;;;;;;;19.95;16.05;;;;;;;18.18;100.00;101338.72;4920985;29;21157;-49
2023/06/29 04:27:00;;;;;;;26.67;20.27;;;;;;;18.24;100.00;101332.91;4924065;29;20227;-51
2023/06/29 04:29:26;;;;;;;22.60;20.08;;;;;;;18.30;100.00;101328.94;4924960;29;20263;-50
2023/06/29 04:31:53;;;;;;;28.92;21.88;;;;;;;18.34;100.00;101322.34;4922111;29;20187;-52
2023/06/29 04:34:18;;;;;;;24.92;20.08;;;;;;;18.35;100.00;101321.41;4923545;29;20211;-49
2023/06/29 04:36:47;;;;;;;25.73;20.75;;;;;;;18.30;100.00;101320.78;4927233;29;20206;-52
2023/06/29 04:39:13;;;;;;;28.30;21.13;;;;;;;18.35;100.00;101318.69;4924157;29;20275;-52
2023/06/29 04:41:40;;;;;;;24.35;19.58;;;;;;;18.50;100.00;101327.69;4920835;29;20195;-50
2023/06/29 04:44:08;;;;;;;24.40;20.48;;;;;;;18.51;100.00;101318.56;4919502;29;20294;-54
2023/06/29 04:46:38;;;;;;;24.42;19.52;;;;;;;18.62;100.00;101320.59;4922119;29;20176;-53
2023/06/29 04:49:06;;;;;;;26.70;20.83;;;;;;;18.44;100.00;101317.22;4921212;29;20280;-49
2023/06/29 04:51:35;;;;;;;27.67;22.17;;;;;;;18.50;100.00;101308.72;4925004;29;20214;-54
2023/06/29 04:54:01;;;;;;;30.75;20.63;;;;;;;18.57;100.00;101315.47;4920302;29;20299;-52
2023/06/29 04:56:27;;;;;;;27.05;20.10;;;;;;;18.69;100.00;101311.09;4924336;29;20198;-52
2023/06/29 04:58:52;;;;;;;23.00;19.45;;;;;;;18.89;100.00;101310.72;4923785;29;20191;-49
2023/06/29 05:01:18;;;;;;;26.60;20.48;;;;;;;18.92;100.00;101307.78;4924870;29;20223;-49
2023/06/29 05:03:43;;;;;;;24.70;19.80;;;;;;;18.96;100.00;101313.00;4922289;29;20294;-50
2023/06/29 05:06:09;;;;;;;25.20;19.67;;;;;;;18.96;100.00;101305.75;4924125;29;20268;-51
2023/06/29 05:08:34;;;;;;;21.80;18.95;;;;;;;18.97;100.00;101307.47;4925535;29;20265;-49
2023/06/29 05:11:00;;;;;;;28.50;22.73;;;;;;;18.86;100.00;101315.47;4920492;29;20278;-49
2023/06/29 05:13:25;;;;;;;23.63;20.50;;;;;;;18.84;100.00;101309.25;4921624;29;20201;-50
2023/06/29 05:15:51;;;;;;;26.38;21.00;;;;;;;18.79;100.00;101309.56;4936405;28;20211;-48
2023/06/29 05:18:16;;;;;;;31.45;22.08;;;;;;;18.83;100.00;101304.81;4919442;29;20294;-50
2023/06/29 05:20:42;;;;;;;27.83;21.52;;;;;;;18.93;100.00;101305.94;4925280;29;20187;-51
2023/06/29 05:23:09;;;;;;;24.38;18.77;;;;;;;19.03;100.00;101309.78;4921689;29;20425;-49
2023/06/29 05:25:35;;;;;;;22.50;18.70;;;;;;;19.20;100.00;101295.09;4923501;29;20180;-50
2023/06/29 05:28:01;;;;;;;29.23;21.65;;;;;;;19.11;100.00;101291.16;4922651;29;20191;-51
2023/06/29 05:30:26;;;;;;;21.90;18.42;;;;;;;19.15;100.00;101297.22;4923321;29;20793;-51
2023/06/29 05:32:52;;;;;;;28.63;21.35;;;;;;;19.10;100.00;101302.09;4923130;29;20203;-48
2023/06/29 05:35:18;;;;;;;25.70;20.05;;;;;;;19.21;100.00;101290.53;4920050;29;20355;-48
2023/06/29 05:37:45;;;;;;;23.27;19.25;;;;;;;19.22;100.00;101285.00;4924208;29;20206;-50
2023/06/29 05:40:11;;;;;;;21.92;18.05;;;;;;;19.33;100.00;101290.56;4921923;28;20179;-48
2023/06/29 05:42:37;;;;;;;25.95;21.05;;;;;;;19.26;100.00;101289.25;4923812;29;20211;-47
2023/06/29 05:45:03;;;;;;;22.13;19.38;;;;;;;19.37;100.00;101290.34;4923700;29;20181;-50
2023/06/29 05:47:28;;;;;;;24.67;19.58;;;;;;;19.47;100.00;101296.91;4925378;29;20195;-49
2023/06/29 05:49:54;;;;;;;23.33;18.60;;;;;;;19.51;100.00;101293.00;4923894;29;20195;-49
2023/06/29 05:52:19;;;;;;;26.35;19.70;;;;;;;19.54;100.00;101290.94;4920903;29;20194;-48
2023/06/29 05:54:45;;;;;;;27.23;19.65;;;;;;;19.53;100.00;101291.94;4921656;29;20182;-48
2023/06/29 05:57:10;;;;;;;24.05;19.38;;;;;;;19.59;100.00;101285.22;4926601;29;20239;-48
2023/06/29 05:59:36;;;;;;;23.35;17.27;;;;;;;19.82;100.00;101282.78;4922202;29;20226;-48
2023/06/29 06:02:02;;;;;;;25.27;20.00;;;;;;;19.46;100.00;101287.00;4921526;29;20184;-49
2023/06/29 06:04:28;;;;;;;23.77;18.08;;;;;;;19.63;100.00;101289.44;4919533;29;20656;-49
2023/06/29 06:06:53;;;;;;;19.63;15.68;;;;;;;19.79;100.00;101288.41;4922145;29;20198;-48
2023/06/29 06:09:19;;;;;;;25.92;19.55;;;;;;;19.51;100.00;101283.00;4919604;29;20179;-48
2023/06/29 06:11:44;;;;;;;28.23;20.60;;;;;;;19.59;100.00;101301.53;4923102;28;20217;-49
2023/06/29 06:14:10;;;;;;;25.08;19.52;;;;;;;19.67;100.00;101301.84;4922899;29;20203;-49
2023/06/29 06:16:35;;;;;;;21.65;16.17;;;;;;;19.77;100.00;101291.25;4921135;29;20199;-48
2023/06/29 06:19:01;;;;;;;26.95;18.55;;;;;;;19.64;100.00;101296.63;4919408;29;20530;-49
2023/06/29 06:21:27;;;;;;;22.60;18.05;;;;;;;19.52;100.00;101290.16;4919795;29;20192;-50
2023/06/29 06:23:53;;;;;;;25.85;18.83;;;;;;;19.65;100.00;101298.34;4921163;29;20720;-48
2023/06/29 06:26:19;;;;;;;24.35;19.17;;;;;;;19.68;100.00;101302.75;4920420;29;20206;-49
2023/06/29 06:28:44;;;;;;;22.05;17.17;;;;;;;19.80;100.00;101303.75;4923942;29;20179;-48
2023/06/29 06:31:10;;;;;;;25.75;18.98;;;;;;;19.58;100.00;101302.47;4919331;29;20201;-48
2023/06/29 06:33:35;;;;;;;18.45;14.73;;;;;;;19.72;100.00;101302.44;4921476;29;20290;-49
2023/06/29 06:36:02;;;;;;;22.50;17.15;;;;;;;19.76;100.00;101303.09;4920311;29;20229;-47
2023/06/29 06:38:28;;;;;;;23.50;18.33;;;;;;;19.75;100.00;101296.78;4918664;29;20553;-47
2023/06/29 06:40:53;;;;;;;21.30;17.15;;;;;;;19.78;100.00;101298.41;4919201;29;20187;-51
2023/06/29 06:43:19;;;;;;;21.83;18.52;;;;;;;19.96;100.00;101299.88;4916076;29;20585;-49
2023/06/29 06:45:45;;;;;;;23.05;18.02;;;;;;;19.98;100.00;101298.88;4916580;29;20659;-48
2023/06/29 06:48:10;;;;;;;22.05;16.90;;;;;;;19.97;100.00;101289.84;4915467;29;20541;-49
2023/06/29 06:50:36;;;;;;;20.23;16.63;;;;;;;19.94;100.00;101296.38;4914566;29;20209;-50
2023/06/29 06:53:01;;;;;;;24.35;17.23;;;;;;;19.94;100.00;101298.22;4917911;29;20530;-47
2023/06/29 06:55:27;;;;;;;22.88;18.52;;;;;;;19.73;100.00;101287.88;4913740;29;20172;-48
2023/06/29 06:57:53;;;;;;;24.52;17.20;;;;;;;19.97;100.00;101295.28;4922145;29;20210;-46
2023/06/29 07:00:19;;;;;;;22.80;19.25;;;;;;;19.95;100.00;101294.53;4916142;29;20547;-46
2023/06/29 07:02:44;;;;;;;22.60;18.27;;;;;;;20.02;100.00;101297.69;4916832;29;20208;-46
2023/06/29 07:05:10;;;;;;;20.13;16.23;;;;;;;20.21;100.00;101299.97;4923535;29;20182;-45
2023/06/29 07:07:36;;;;;;;19.83;16.45;;;;;;;20.21;100.00;101295.41;4923189;29;20182;-47
2023/06/29 07:10:02;;;;;;;22.85;16.52;;;;;;;19.93;100.00;101294.63;4919848;29;20193;-47
2023/06/29 07:12:28;;;;;;;23.00;16.73;;;;;;;19.95;100.00;101292.66;4914779;29;20206;-49
2023/06/29 07:14:54;;;;;;;20.55;16.88;;;;;;;20.00;100.00;101299.63;4921439;29;20191;-47
2023/06/29 07:17:19;;;;;;;22.08;16.90;;;;;;;20.16;100.00;101290.28;4923091;29;20263;-49
2023/06/29 07:19:45;;;;;;;24.73;17.25;;;;;;;20.12;100.00;101293.34;4919976;29;20233;-46
2023/06/29 07:22:10;;;;;;;22.20;16.73;;;;;;;19.99;100.00;101285.19;4920524;29;22753;-46
2023/06/29 07:24:36;;;;;;;24.17;17.40;;;;;;;20.05;100.00;101275.69;4923890;29;20207;-46
2023/06/29 07:27:02;;;;;;;23.15;16.48;;;;;;;20.19;100.00;101275.59;4919692;29;20191;-48
2023/06/29 07:29:30;;;;;;;21.08;15.93;;;;;;;20.28;100.00;101277.66;4918302;29;20191;-48
2023/06/29 07:31:55;;;;;;;22.88;16.65;;;;;;;20.31;98.98;101273.81;4923414;29;20599;-47
2023/06/29 07:34:23;;;;;;;21.40;15.90;;;;;;;20.62;98.85;101264.34;4917839;29;20199;-47
2023/06/29 07:36:48;;;;;;;23.05;16.20;;;;;;;20.75;96.94;101267.00;4921204;28;20208;-45
2023/06/29 07:39:14;;;;;;;21.45;16.13;;;;;;;20.92;95.93;101254.88;4922316;29;20525;-46
2023/06/29 07:41:40;;;;;;;22.15;15.90;;;;;;;21.18;93.84;101251.03;4918559;29;20651;-45
2023/06/29 07:44:05;;;;;;;21.10;14.50;;;;;;;21.64;92.50;101241.19;4919936;29;20552;-46
2023/06/29 07:46:34;;;;;;;18.77;15.57;;;;;;;21.44;90.77;101252.78;4918380;29;20179;-47
2023/06/29 07:49:00;;;;;;;21.17;17.10;;;;;;;21.35;89.86;101241.56;4921511;29;20511;-46
2023/06/29 07:51:31;;;;;;;20.73;16.98;;;;;;;21.53;89.42;101227.53;4921046;29;20180;-46
2023/06/29 07:53:58;;;;;;;23.30;16.65;;;;;;;21.57;88.51;101224.44;4923187;29;20219;-46
2023/06/29 07:56:23;;;;;;;19.67;15.25;;;;;;;21.79;88.14;101228.22;4925710;29;20294;-47
2023/06/29 07:58:48;;;;;;;19.70;16.38;;;;;;;21.80;87.03;101221.78;4923927;29;20318;-45
2023/06/29 08:01:14;;;;;;;22.20;15.80;;;;;;;21.64;86.65;101215.78;4924877;29;20446;-46
2023/06/29 08:03:39;;;;;;;20.83;16.25;;;;;;;21.59;87.44;101216.16;4918960;29;20201;-47
2023/06/29 08:06:05;;;;;;;21.92;16.48;;;;;;;21.76;87.16;101223.00;4925021;29;20207;-47
2023/06/29 08:08:31;;;;;;;21.30;16.38;;;;;;;21.69;86.96;101221.72;4924918;29;20179;-48
2023/06/29 08:10:58;;;;;;;25.77;17.95;;;;;;;21.67;86.78;101223.72;4941059;29;20553;-47
2023/06/29 08:13:24;;;;;;;24.60;15.93;;;;;;;22.23;86.40;101212.88;4929717;29;20195;-45
2023/06/29 08:15:50;;;;;;;20.23;16.02;;;;;;;22.36;84.73;101205.41;4925417;29;20190;-47
2023/06/29 08:18:15;;;;;;;25.45;18.10;;;;;;;22.20;82.97;101203.06;4928020;29;20531;-44
2023/06/29 08:20:41;;;;;;;23.60;16.00;;;;;;;22.43;82.84;101203.06;4927637;29;20274;-48
2023/06/29 08:23:07;;;;;;;18.92;14.82;;;;;;;22.46;82.97;101205.53;4929606;29;20198;-46
2023/06/29 08:25:32;;;;;;;22.48;16.88;;;;;;;22.28;82.85;101201.59;4920725;29;20616;-49
2023/06/29 08:27:58;;;;;;;21.95;17.38;;;;;;;22.08;83.32;101211.34;4928116;29;20244;-49
2023/06/29 08:30:23;;;;;;;17.08;14.27;;;;;;;22.39;83.52;101207.03;4922648;29;20266;-46
2023/06/29 08:32:49;;;;;;;20.17;14.93;;;;;;;22.54;82.97;101207.63;4927020;29;20206;-49
2023/06/29 08:35:15;;;;;;;23.42;16.85;;;;;;;22.14;82.96;101203.53;4926486;29;20179;-49
2023/06/29 08:37:41;;;;;;;18.70;15.73;;;;;;;22.48;82.13;101199.94;4925832;29;20635;-47
2023/06/29 08:40:07;;;;;;;23.05;15.70;;;;;;;22.58;81.93;101201.78;4921095;29;20266;-48
2023/06/29 08:42:34;;;;;;;25.02;17.70;;;;;;;22.46;81.34;101196.50;4919580;29;20182;-48
2023/06/29 08:45:00;;;;;;;25.20;18.17;;;;;;;22.16;81.60;101196.09;4923927;29;20187;-51
2023/06/29 08:47:28;;;;;;;18.65;16.63;;;;;;;22.43;82.31;101197.59;4924545;29;20300;-53
2023/06/29 08:49:56;;;;;;;21.27;16.60;;;;;;;23.09;81.76;101183.00;4922916;29;20270;-53
2023/06/29 08:52:25;;;;;;;24.10;17.95;;;;;;;22.93;79.18;101180.69;4922843;29;20179;-54
2023/06/29 08:54:51;;;;;;;21.73;15.52;;;;;;;23.52;79.41;101176.56;4925609;29;20266;-54
2023/06/29 08:57:18;;;;;;;19.10;15.15;;;;;;;23.61;78.13;101173.91;4924362;29;20602;-49
2023/06/29 08:59:45;;;;;;;22.33;16.33;;;;;;;23.83;76.63;101172.91;4925059;29;20203;-50
2023/06/29 09:02:12;;;;;;;21.45;17.25;;;;;;;23.52;76.07;101162.91;4919896;29;20196;-50
2023/06/29 09:04:37;;;;;;;21.98;15.20;;;;;;;23.84;75.65;101163.69;4924317;29;20690;-47
2023/06/29 09:07:03;;;;;;;19.70;15.18;;;;;;;24.63;73.22;101153.88;4918876;29;20182;-51
2023/06/29 09:09:30;;;;;;;19.35;14.90;;;;;;;24.22;71.95;101153.88;4921165;29;20186;-54
2023/06/29 09:11:55;;;;;;;17.65;14.45;;;;;;;23.77;71.99;101146.09;4921666;29;20254;-52
2023/06/29 09:14:22;;;;;;;16.77;14.50;;;;;;;23.50;72.45;101143.88;4923502;29;20261;-55
2023/06/29 09:16:52;;;;;;;20.35;14.90;;;;;;;23.70;73.37;101153.06;4928586;28;20793;-52
2023/06/29 09:19:19;;;;;;;18.65;14.38;;;;;;;23.88;72.76;101156.09;4923521;29;20186;-49
2023/06/29 09:21:47;;;;;;;17.90;14.50;;;;;;;23.63;72.60;101140.94;4924727;28;20205;-49
2023/06/29 09:24:17;;;;;;;16.95;13.48;;;;;;;24.77;70.77;101133.41;4920842;29;20554;-50
2023/06/29 09:26:43;;;;;;;15.32;13.07;;;;;;;25.06;69.16;101120.56;4925821;29;20701;-51
2023/06/29 09:29:08;;;;;;;19.98;12.85;;;;;;;24.13;69.06;101123.75;4937703;29;20544;-49
2023/06/29 09:31:37;;;;;;;15.30;12.52;;;;;;;24.00;70.01;101127.59;4922104;29;20180;-48
2023/06/29 09:34:25;;;;;;;17.80;12.88;;;;;;;23.81;70.37;101128.41;4924993;29;20203;-48
2023/06/29 09:36:51;;;;;;;17.35;13.25;;;;;;;23.27;71.79;101129.50;4922626;29;20203;-52
2023/06/29 09:39:18;;;;;;;19.30;14.35;;;;;;;22.81;73.32;101134.31;4921262;29;20183;-48
2023/06/29 09:41:48;;;;;;;17.58;12.98;;;;;;;22.90;75.44;101149.03;4918222;29;20189;-49
2023/06/29 09:44:19;;;;;;;17.67;14.35;;;;;;;22.74;74.77;101148.59;4921137;29;20206;-51
2023/06/29 09:46:47;;;;;;;15.75;13.02;;;;;;;22.66;75.49;101152.00;4920030;29;20238;-51
2023/06/29 09:49:14;;;;;;;14.90;12.55;;;;;;;22.64;75.55;101153.97;4923472;29;20190;-49
2023/06/29 09:51:40;;;;;;;15.45;12.98;;;;;;;22.69;75.11;101146.25;4923677;29;20193;-52
2023/06/29 09:54:13;;;;;;;15.60;12.95;;;;;;;22.78;75.41;101150.97;4921448;29;20202;-48
2023/06/29 09:56:44;;;;;;;15.65;13.77;;;;;;;23.01;74.33;101143.56;4920629;29;20670;-51
2023/06/29 09:59:10;;;;;;;14.77;12.88;;;;;;;23.22;73.90;101143.59;4922078;29;20231;-48
2023/06/29 10:01:37;;;;;;;16.63;13.27;;;;;;;23.21;73.03;101147.28;4920483;29;20615;-54
2023/06/29 10:04:04;;;;;;;14.75;12.93;;;;;;;23.29;72.54;101141.19;4918102;29;20233;-49
2023/06/29 10:06:46;;;;;;;18.50;13.65;;;;;;;23.76;71.37;101135.28;4922569;29;20566;-49
2023/06/29 10:09:16;;;;;;;17.17;13.85;;;;;;;23.82;70.80;101124.66;4922463;29;20194;-49
2023/06/29 10:11:44;;;;;;;18.92;13.48;;;;;;;24.28;69.58;101108.66;4919077;29;20179;-51
2023/06/29 10:14:14;;;;;;;18.15;11.85;;;;;;;24.73;68.32;101094.47;4920112;29;20215;-50
2023/06/29 10:16:45;;;;;;;17.80;14.07;;;;;;;25.13;65.81;101087.06;4921662;29;20203;-50
2023/06/29 10:19:18;;;;;;;15.38;11.82;;;;;;;25.12;64.87;101077.97;4925995;29;20191;-50
2023/06/29 10:21:45;;;;;;;17.48;12.82;;;;;;;25.33;64.62;101083.31;4919746;29;20192;-49
2023/06/29 10:24:19;;;;;;;13.38;11.50;;;;;;;26.01;62.90;101063.81;4921786;29;20626;-48
2023/06/29 10:26:47;;;;;;;13.88;12.25;;;;;;;25.62;63.56;101063.13;4923373;29;20247;-49
2023/06/29 10:29:13;;;;;;;15.15;12.43;;;;;;;25.79;62.27;101062.31;4921102;28;20199;-51
2023/06/29 10:31:45;;;;;;;15.55;13.48;;;;;;;25.20;62.96;101052.59;4920914;29;20221;-53
2023/06/29 10:34:13;;;;;;;13.85;12.10;;;;;;;25.79;61.85;101050.50;4918966;29;20230;-49
2023/06/29 10:36:48;;;;;;;15.57;12.35;;;;;;;25.73;62.63;101057.44;4925076;29;20285;-49
2023/06/29 10:39:42;;;;;;;14.68;12.43;;;;;;;25.52;61.22;101045.81;4920961;29;20551;-49
2023/06/29 10:42:23;;;;;;;15.07;11.90;;;;;;;25.06;62.40;101054.75;4919862;29;20673;-50
2023/06/29 10:44:48;;;;;;;14.82;12.85;;;;;;;24.85;63.28;101062.28;4917455;28;20230;-49
2023/06/29 10:47:37;;;;;;;15.98;11.93;;;;;;;24.66;64.24;101058.56;4921303;29;20187;-50
2023/06/29 10:50:08;;;;;;;18.27;13.80;;;;;;;24.59;64.63;101070.22;4919263;29;20202;-50
2023/06/29 10:52:34;;;;;;;14.27;12.35;;;;;;;24.35;65.73;101074.22;4920178;29;20321;-49
2023/06/29 10:55:20;;;;;;;15.02;12.60;;;;;;;24.30;65.59;101079.25;4921818;29;20238;-51
2023/06/29 10:57:54;;;;;;;19.25;13.20;;;;;;;24.56;66.03;101079.59;4923264;29;20211;-52
2023/06/29 11:00:20;;;;;;;16.02;12.80;;;;;;;24.64;66.46;101079.75;4920799;29;20522;-48
2023/06/29 11:02:50;;;;;;;20.25;14.68;;;;;;;24.06;66.75;101082.38;4919877;29;20579;-50
2023/06/29 11:05:17;;;;;;;16.85;13.68;;;;;;;24.03;66.42;101075.31;4923512;29;20207;-50
2023/06/29 11:07:44;;;;;;;15.30;13.63;;;;;;;24.00;67.45;101088.41;4917873;29;20227;-54